sensor_id;sensor_type;location;lat;lon;timestamp;temperature;humidity
4813;DHT22;2420;51.202;8.698;2023-04-24T00:00:13;9.20;1.00
4813;DHT22;2420;51.202;8.698;2023-04-24T00:02:39;9.20;1.00
4813;DHT22;2420;51.202;8.698;2023-04-24T00:05:06;9.30;1.00
4813;DHT22;2420;51.202;8.698;2023-04-24T00:07:32;9.40;1.00
4813;DHT22;2420;51.202;8.698;2023-04-24T00:09:57;9.30;1.00
4813;DHT22;2420;51.202;8.698;2023-04-24T00:12:23;9.30;1.00
4813;DHT22;2420;51.202;8.698;2023-04-24T00:14:49;9.20;1.00
4813;DHT22;2420;51.202;8.698;2023-04-24T00:17:15;9.20;1.00
4813;DHT22;2420;51.202;8.698;2023-04-24T00:19:41;9.20;1.00
4813;DHT22;2420;51.202;8.698;2023-04-24T00:22:06;9.10;1.00
4813;DHT22;2420;51.202;8.698;2023-04-24T00:24:32;9.00;1.00
4813;DHT22;2420;51.202;8.698;2023-04-24T00:26:58;9.00;1.00
4813;DHT22;2420;51.202;8.698;2023-04-24T00:29:23;8.90;1.00
4813;DHT22;2420;51.202;8.698;2023-04-24T00:31:49;9.00;1.00
4813;DHT22;2420;51.202;8.698;2023-04-24T00:34:15;9.00;1.00
4813;DHT22;2420;51.202;8.698;2023-04-24T00:36:40;9.10;1.00
4813;DHT22;2420;51.202;8.698;2023-04-24T00:39:06;9.10;1.00
4813;DHT22;2420;51.202;8.698;2023-04-24T00:41:34;9.00;1.00
4813;DHT22;2420;51.202;8.698;2023-04-24T00:43:59;8.80;1.00
4813;DHT22;2420;51.202;8.698;2023-04-24T00:46:25;8.70;1.00
4813;DHT22;2420;51.202;8.698;2023-04-24T00:48:51;8.60;1.00
4813;DHT22;2420;51.202;8.698;2023-04-24T00:51:17;8.50;1.00
4813;DHT22;2420;51.202;8.698;2023-04-24T00:53:43;8.50;1.00
4813;DHT22;2420;51.202;8.698;2023-04-24T00:56:09;8.40;1.00
4813;DHT22;2420;51.202;8.698;2023-04-24T00:58:35;8.30;1.00
4813;DHT22;2420;51.202;8.698;2023-04-24T01:01:01;8.30;1.00
4813;DHT22;2420;51.202;8.698;2023-04-24T01:03:29;8.20;1.00
4813;DHT22;2420;51.202;8.698;2023-04-24T01:05:56;8.20;1.00
4813;DHT22;2420;51.202;8.698;2023-04-24T01:08:24;8.20;1.00
4813;DHT22;2420;51.202;8.698;2023-04-24T01:10:52;8.20;1.00
4813;DHT22;2420;51.202;8.698;2023-04-24T01:13:19;8.20;1.00
4813;DHT22;2420;51.202;8.698;2023-04-24T01:15:45;8.20;1.00
4813;DHT22;2420;51.202;8.698;2023-04-24T01:18:11;8.20;1.00
4813;DHT22;2420;51.202;8.698;2023-04-24T01:20:41;8.10;1.00
4813;DHT22;2420;51.202;8.698;2023-04-24T01:23:08;8.20;1.00
4813;DHT22;2420;51.202;8.698;2023-04-24T01:25:34;8.20;1.00
4813;DHT22;2420;51.202;8.698;2023-04-24T01:28:01;8.30;1.00
4813;DHT22;2420;51.202;8.698;2023-04-24T01:30:27;8.30;1.00
4813;DHT22;2420;51.202;8.698;2023-04-24T01:32:53;8.30;1.00
4813;DHT22;2420;51.202;8.698;2023-04-24T01:35:19;8.30;1.00
4813;DHT22;2420;51.202;8.698;2023-04-24T01:37:45;8.30;1.00
4813;DHT22;2420;51.202;8.698;2023-04-24T01:40:11;8.40;1.00
4813;DHT22;2420;51.202;8.698;2023-04-24T01:42:36;8.40;1.00
4813;DHT22;2420;51.202;8.698;2023-04-24T01:45:04;8.50;1.00
4813;DHT22;2420;51.202;8.698;2023-04-24T01:47:31;8.50;1.00
4813;DHT22;2420;51.202;8.698;2023-04-24T01:49:56;8.50;1.00
4813;DHT22;2420;51.202;8.698;2023-04-24T01:52:22;8.50;1.00
4813;DHT22;2420;51.202;8.698;2023-04-24T01:54:48;8.50;1.00
4813;DHT22;2420;51.202;8.698;2023-04-24T01:57:14;8.50;1.00
4813;DHT22;2420;51.202;8.698;2023-04-24T01:59:40;8.50;1.00
4813;DHT22;2420;51.202;8.698;2023-04-24T02:02:05;8.60;1.00
4813;DHT22;2420;51.202;8.698;2023-04-24T02:04:31;8.70;1.00
4813;DHT22;2420;51.202;8.698;2023-04-24T02:06:57;8.80;1.00
4813;DHT22;2420;51.202;8.698;2023-04-24T02:09:22;8.90;1.00
4813;DHT22;2420;51.202;8.698;2023-04-24T02:11:48;9.00;1.00
4813;DHT22;2420;51.202;8.698;2023-04-24T02:14:13;9.00;1.00
4813;DHT22;2420;51.202;8.698;2023-04-24T02:16:39;9.00;1.00
4813;DHT22;2420;51.202;8.698;2023-04-24T02:19:04;9.00;1.00
4813;DHT22;2420;51.202;8.698;2023-04-24T02:21:30;9.10;1.00
4813;DHT22;2420;51.202;8.698;2023-04-24T02:23:56;9.10;1.00
4813;DHT22;2420;51.202;8.698;2023-04-24T02:26:22;9.10;1.00
4813;DHT22;2420;51.202;8.698;2023-04-24T02:28:47;9.10;1.00
4813;DHT22;2420;51.202;8.698;2023-04-24T02:31:13;9.10;1.00
4813;DHT22;2420;51.202;8.698;2023-04-24T02:33:39;9.10;1.00
4813;DHT22;2420;51.202;8.698;2023-04-24T02:36:05;9.00;1.00
4813;DHT22;2420;51.202;8.698;2023-04-24T02:38:30;9.00;1.00
4813;DHT22;2420;51.202;8.698;2023-04-24T02:40:56;8.90;1.00
4813;DHT22;2420;51.202;8.698;2023-04-24T02:43:21;9.00;1.00
4813;DHT22;2420;51.202;8.698;2023-04-24T02:45:47;9.00;1.00
4813;DHT22;2420;51.202;8.698;2023-04-24T02:48:13;8.90;1.00
4813;DHT22;2420;51.202;8.698;2023-04-24T02:50:38;8.90;1.00
4813;DHT22;2420;51.202;8.698;2023-04-24T02:53:04;9.00;1.00
4813;DHT22;2420;51.202;8.698;2023-04-24T02:55:29;9.10;1.00
4813;DHT22;2420;51.202;8.698;2023-04-24T02:57:55;9.00;1.00
4813;DHT22;2420;51.202;8.698;2023-04-24T03:00:21;9.00;1.00
4813;DHT22;2420;51.202;8.698;2023-04-24T03:02:47;9.00;1.00
4813;DHT22;2420;51.202;8.698;2023-04-24T03:05:12;9.00;1.00
4813;DHT22;2420;51.202;8.698;2023-04-24T03:07:38;9.10;1.00
4813;DHT22;2420;51.202;8.698;2023-04-24T03:10:04;9.10;1.00
4813;DHT22;2420;51.202;8.698;2023-04-24T03:12:31;9.00;1.00
4813;DHT22;2420;51.202;8.698;2023-04-24T03:14:56;9.00;1.00
4813;DHT22;2420;51.202;8.698;2023-04-24T03:17:22;9.00;1.00
4813;DHT22;2420;51.202;8.698;2023-04-24T03:19:47;9.00;1.00
4813;DHT22;2420;51.202;8.698;2023-04-24T03:22:13;9.00;1.00
4813;DHT22;2420;51.202;8.698;2023-04-24T03:24:38;9.00;1.00
4813;DHT22;2420;51.202;8.698;2023-04-24T03:27:04;9.00;1.00
4813;DHT22;2420;51.202;8.698;2023-04-24T03:29:29;9.00;1.00
4813;DHT22;2420;51.202;8.698;2023-04-24T03:31:55;9.10;1.00
4813;DHT22;2420;51.202;8.698;2023-04-24T03:34:21;9.00;1.00
4813;DHT22;2420;51.202;8.698;2023-04-24T03:36:46;9.10;1.00
4813;DHT22;2420;51.202;8.698;2023-04-24T03:39:13;9.10;1.00
4813;DHT22;2420;51.202;8.698;2023-04-24T03:41:38;9.10;1.00
4813;DHT22;2420;51.202;8.698;2023-04-24T03:44:04;9.00;1.00
4813;DHT22;2420;51.202;8.698;2023-04-24T03:46:29;8.90;1.00
4813;DHT22;2420;51.202;8.698;2023-04-24T03:48:55;9.00;1.00
4813;DHT22;2420;51.202;8.698;2023-04-24T03:51:20;8.90;1.00
4813;DHT22;2420;51.202;8.698;2023-04-24T03:53:47;9.00;1.00
4813;DHT22;2420;51.202;8.698;2023-04-24T03:56:12;9.00;1.00
4813;DHT22;2420;51.202;8.698;2023-04-24T03:58:38;8.90;1.00
4813;DHT22;2420;51.202;8.698;2023-04-24T04:01:03;8.90;1.00
4813;DHT22;2420;51.202;8.698;2023-04-24T04:03:29;9.00;1.00
4813;DHT22;2420;51.202;8.698;2023-04-24T04:05:55;8.90;1.00
4813;DHT22;2420;51.202;8.698;2023-04-24T04:08:20;8.90;1.00
4813;DHT22;2420;51.202;8.698;2023-04-24T04:10:46;8.90;1.00
4813;DHT22;2420;51.202;8.698;2023-04-24T04:13:11;9.00;1.00
4813;DHT22;2420;51.202;8.698;2023-04-24T04:15:37;9.00;1.00
4813;DHT22;2420;51.202;8.698;2023-04-24T04:18:02;8.90;1.00
4813;DHT22;2420;51.202;8.698;2023-04-24T04:20:28;8.90;1.00
4813;DHT22;2420;51.202;8.698;2023-04-24T04:22:54;8.80;1.00
4813;DHT22;2420;51.202;8.698;2023-04-24T04:25:19;8.50;1.00
4813;DHT22;2420;51.202;8.698;2023-04-24T04:27:46;8.40;1.00
4813;DHT22;2420;51.202;8.698;2023-04-24T04:30:13;8.30;1.00
4813;DHT22;2420;51.202;8.698;2023-04-24T04:32:39;8.30;1.00
4813;DHT22;2420;51.202;8.698;2023-04-24T04:35:05;8.20;1.00
4813;DHT22;2420;51.202;8.698;2023-04-24T04:37:33;8.10;1.00
4813;DHT22;2420;51.202;8.698;2023-04-24T04:39:59;8.00;1.00
4813;DHT22;2420;51.202;8.698;2023-04-24T04:42:28;8.00;1.00
4813;DHT22;2420;51.202;8.698;2023-04-24T04:44:54;8.00;1.00
4813;DHT22;2420;51.202;8.698;2023-04-24T04:47:22;8.00;1.00
4813;DHT22;2420;51.202;8.698;2023-04-24T04:49:50;8.00;1.00
4813;DHT22;2420;51.202;8.698;2023-04-24T04:52:19;7.90;1.00
4813;DHT22;2420;51.202;8.698;2023-04-24T04:54:45;8.00;1.00
4813;DHT22;2420;51.202;8.698;2023-04-24T04:57:11;8.00;1.00
4813;DHT22;2420;51.202;8.698;2023-04-24T04:59:37;8.00;1.00
4813;DHT22;2420;51.202;8.698;2023-04-24T05:02:03;8.00;1.00
4813;DHT22;2420;51.202;8.698;2023-04-24T05:04:29;7.90;1.00
4813;DHT22;2420;51.202;8.698;2023-04-24T05:06:55;7.90;1.00
4813;DHT22;2420;51.202;8.698;2023-04-24T05:09:21;8.00;1.00
4813;DHT22;2420;51.202;8.698;2023-04-24T05:11:47;7.90;1.00
4813;DHT22;2420;51.202;8.698;2023-04-24T05:14:12;7.90;1.00
4813;DHT22;2420;51.202;8.698;2023-04-24T05:16:39;8.00;1.00
4813;DHT22;2420;51.202;8.698;2023-04-24T05:19:05;8.00;1.00
4813;DHT22;2420;51.202;8.698;2023-04-24T05:21:31;8.00;1.00
4813;DHT22;2420;51.202;8.698;2023-04-24T05:23:56;7.80;1.00
4813;DHT22;2420;51.202;8.698;2023-04-24T05:26:22;7.70;1.00
4813;DHT22;2420;51.202;8.698;2023-04-24T05:28:48;7.70;1.00
4813;DHT22;2420;51.202;8.698;2023-04-24T05:31:13;7.70;1.00
4813;DHT22;2420;51.202;8.698;2023-04-24T05:33:39;7.80;1.00
4813;DHT22;2420;51.202;8.698;2023-04-24T05:36:06;7.90;1.00
4813;DHT22;2420;51.202;8.698;2023-04-24T05:38:31;7.90;1.00
4813;DHT22;2420;51.202;8.698;2023-04-24T05:40:57;7.90;1.00
4813;DHT22;2420;51.202;8.698;2023-04-24T05:43:23;7.90;1.00
4813;DHT22;2420;51.202;8.698;2023-04-24T05:45:48;7.90;1.00
4813;DHT22;2420;51.202;8.698;2023-04-24T05:48:14;7.90;1.00
4813;DHT22;2420;51.202;8.698;2023-04-24T05:50:39;8.00;1.00
4813;DHT22;2420;51.202;8.698;2023-04-24T05:53:05;8.00;1.00
4813;DHT22;2420;51.202;8.698;2023-04-24T05:55:32;7.90;1.00
4813;DHT22;2420;51.202;8.698;2023-04-24T05:57:58;7.90;1.00
4813;DHT22;2420;51.202;8.698;2023-04-24T06:00:24;7.90;1.00
4813;DHT22;2420;51.202;8.698;2023-04-24T06:02:50;7.90;1.00
4813;DHT22;2420;51.202;8.698;2023-04-24T06:05:17;7.90;1.00
4813;DHT22;2420;51.202;8.698;2023-04-24T06:07:43;8.00;1.00
4813;DHT22;2420;51.202;8.698;2023-04-24T06:10:09;8.00;1.00
4813;DHT22;2420;51.202;8.698;2023-04-24T06:12:35;8.00;1.00
4813;DHT22;2420;51.202;8.698;2023-04-24T06:15:02;8.00;1.00
4813;DHT22;2420;51.202;8.698;2023-04-24T06:17:27;8.10;1.00
4813;DHT22;2420;51.202;8.698;2023-04-24T06:19:53;8.20;1.00
4813;DHT22;2420;51.202;8.698;2023-04-24T06:22:19;8.10;1.00
4813;DHT22;2420;51.202;8.698;2023-04-24T06:24:44;8.10;1.00
4813;DHT22;2420;51.202;8.698;2023-04-24T06:27:10;8.00;1.00
4813;DHT22;2420;51.202;8.698;2023-04-24T06:29:36;7.90;1.00
4813;DHT22;2420;51.202;8.698;2023-04-24T06:32:01;8.00;1.00
4813;DHT22;2420;51.202;8.698;2023-04-24T06:34:27;7.90;1.00
4813;DHT22;2420;51.202;8.698;2023-04-24T06:36:54;8.00;1.00
4813;DHT22;2420;51.202;8.698;2023-04-24T06:39:20;8.00;1.00
4813;DHT22;2420;51.202;8.698;2023-04-24T06:41:45;7.90;1.00
4813;DHT22;2420;51.202;8.698;2023-04-24T06:44:11;7.90;1.00
4813;DHT22;2420;51.202;8.698;2023-04-24T06:46:37;7.90;1.00
4813;DHT22;2420;51.202;8.698;2023-04-24T06:49:02;7.80;1.00
4813;DHT22;2420;51.202;8.698;2023-04-24T06:51:28;7.80;1.00
4813;DHT22;2420;51.202;8.698;2023-04-24T06:53:54;7.80;1.00
4813;DHT22;2420;51.202;8.698;2023-04-24T06:56:21;7.90;1.00
4813;DHT22;2420;51.202;8.698;2023-04-24T06:58:47;7.90;1.00
4813;DHT22;2420;51.202;8.698;2023-04-24T07:01:12;8.00;1.00
4813;DHT22;2420;51.202;8.698;2023-04-24T07:03:38;8.10;1.00
4813;DHT22;2420;51.202;8.698;2023-04-24T07:06:04;8.10;1.00
4813;DHT22;2420;51.202;8.698;2023-04-24T07:08:30;8.30;1.00
4813;DHT22;2420;51.202;8.698;2023-04-24T07:10:56;8.50;1.00
4813;DHT22;2420;51.202;8.698;2023-04-24T07:13:22;8.60;1.00
4813;DHT22;2420;51.202;8.698;2023-04-24T07:15:48;8.50;1.00
4813;DHT22;2420;51.202;8.698;2023-04-24T07:18:16;8.60;1.00
4813;DHT22;2420;51.202;8.698;2023-04-24T07:20:42;8.70;1.00
4813;DHT22;2420;51.202;8.698;2023-04-24T07:23:08;8.80;1.00
4813;DHT22;2420;51.202;8.698;2023-04-24T07:25:33;8.90;1.00
4813;DHT22;2420;51.202;8.698;2023-04-24T07:27:59;9.00;1.00
4813;DHT22;2420;51.202;8.698;2023-04-24T07:30:25;9.10;1.00
4813;DHT22;2420;51.202;8.698;2023-04-24T07:32:51;9.30;1.00
4813;DHT22;2420;51.202;8.698;2023-04-24T07:35:16;9.20;1.00
4813;DHT22;2420;51.202;8.698;2023-04-24T07:37:42;9.30;1.00
4813;DHT22;2420;51.202;8.698;2023-04-24T07:40:14;9.30;1.00
4813;DHT22;2420;51.202;8.698;2023-04-24T07:42:40;9.50;1.00
4813;DHT22;2420;51.202;8.698;2023-04-24T07:45:07;9.50;1.00
4813;DHT22;2420;51.202;8.698;2023-04-24T07:47:39;9.50;1.00
4813;DHT22;2420;51.202;8.698;2023-04-24T07:50:05;9.50;1.00
4813;DHT22;2420;51.202;8.698;2023-04-24T07:52:31;9.40;1.00
4813;DHT22;2420;51.202;8.698;2023-04-24T07:54:56;9.40;1.00
4813;DHT22;2420;51.202;8.698;2023-04-24T07:57:24;9.30;1.00
4813;DHT22;2420;51.202;8.698;2023-04-24T07:59:50;9.40;1.00
4813;DHT22;2420;51.202;8.698;2023-04-24T08:02:16;9.40;1.00
4813;DHT22;2420;51.202;8.698;2023-04-24T08:04:41;9.40;1.00
4813;DHT22;2420;51.202;8.698;2023-04-24T08:07:07;9.10;1.00
4813;DHT22;2420;51.202;8.698;2023-04-24T08:09:33;9.00;1.00
4813;DHT22;2420;51.202;8.698;2023-04-24T08:11:59;9.00;1.00
4813;DHT22;2420;51.202;8.698;2023-04-24T08:14:25;9.00;1.00
4813;DHT22;2420;51.202;8.698;2023-04-24T08:16:52;9.00;1.00
4813;DHT22;2420;51.202;8.698;2023-04-24T08:19:17;9.00;1.00
4813;DHT22;2420;51.202;8.698;2023-04-24T08:21:43;9.00;1.00
4813;DHT22;2420;51.202;8.698;2023-04-24T08:24:08;9.00;1.00
4813;DHT22;2420;51.202;8.698;2023-04-24T08:26:34;9.00;1.00
4813;DHT22;2420;51.202;8.698;2023-04-24T08:28:59;8.90;1.00
4813;DHT22;2420;51.202;8.698;2023-04-24T08:31:25;8.90;1.00
4813;DHT22;2420;51.202;8.698;2023-04-24T08:33:51;8.80;1.00
4813;DHT22;2420;51.202;8.698;2023-04-24T08:36:16;8.80;1.00
4813;DHT22;2420;51.202;8.698;2023-04-24T08:38:42;8.90;1.00
4813;DHT22;2420;51.202;8.698;2023-04-24T08:41:09;8.90;1.00
4813;DHT22;2420;51.202;8.698;2023-04-24T08:43:35;9.00;1.00
4813;DHT22;2420;51.202;8.698;2023-04-24T08:46:04;9.00;1.00
4813;DHT22;2420;51.202;8.698;2023-04-24T08:48:30;9.00;1.00
4813;DHT22;2420;51.202;8.698;2023-04-24T08:50:58;9.00;1.00
4813;DHT22;2420;51.202;8.698;2023-04-24T08:53:25;9.10;1.00
4813;DHT22;2420;51.202;8.698;2023-04-24T08:55:51;9.10;1.00
4813;DHT22;2420;51.202;8.698;2023-04-24T08:58:19;9.10;1.00
4813;DHT22;2420;51.202;8.698;2023-04-24T09:00:45;8.90;1.00
4813;DHT22;2420;51.202;8.698;2023-04-24T09:03:14;8.90;1.00
4813;DHT22;2420;51.202;8.698;2023-04-24T09:05:42;8.80;1.00
4813;DHT22;2420;51.202;8.698;2023-04-24T09:08:11;8.80;1.00
4813;DHT22;2420;51.202;8.698;2023-04-24T09:10:39;8.90;1.00
4813;DHT22;2420;51.202;8.698;2023-04-24T09:13:05;8.90;1.00
4813;DHT22;2420;51.202;8.698;2023-04-24T09:15:31;8.90;1.00
4813;DHT22;2420;51.202;8.698;2023-04-24T09:17:57;9.00;1.00
4813;DHT22;2420;51.202;8.698;2023-04-24T09:20:23;9.20;1.00
4813;DHT22;2420;51.202;8.698;2023-04-24T09:22:48;9.30;1.00
4813;DHT22;2420;51.202;8.698;2023-04-24T09:25:18;9.40;1.00
4813;DHT22;2420;51.202;8.698;2023-04-24T09:27:45;9.30;1.00
4813;DHT22;2420;51.202;8.698;2023-04-24T09:30:11;9.00;1.00
4813;DHT22;2420;51.202;8.698;2023-04-24T09:32:36;9.10;1.00
4813;DHT22;2420;51.202;8.698;2023-04-24T09:35:10;9.20;1.00
4813;DHT22;2420;51.202;8.698;2023-04-24T09:37:43;9.10;1.00
4813;DHT22;2420;51.202;8.698;2023-04-24T09:40:14;9.00;1.00
4813;DHT22;2420;51.202;8.698;2023-04-24T09:42:44;8.90;1.00
4813;DHT22;2420;51.202;8.698;2023-04-24T09:45:10;9.00;1.00
4813;DHT22;2420;51.202;8.698;2023-04-24T09:47:39;9.10;1.00
4813;DHT22;2420;51.202;8.698;2023-04-24T09:50:15;9.10;1.00
4813;DHT22;2420;51.202;8.698;2023-04-24T09:53:01;8.90;1.00
4813;DHT22;2420;51.202;8.698;2023-04-24T09:55:27;8.80;1.00
4813;DHT22;2420;51.202;8.698;2023-04-24T09:57:55;8.80;1.00
4813;DHT22;2420;51.202;8.698;2023-04-24T10:00:22;8.90;1.00
4813;DHT22;2420;51.202;8.698;2023-04-24T10:03:06;8.90;1.00
4813;DHT22;2420;51.202;8.698;2023-04-24T10:05:35;8.80;1.00
4813;DHT22;2420;51.202;8.698;2023-04-24T10:10:29;8.60;1.00
4813;DHT22;2420;51.202;8.698;2023-04-24T10:12:55;8.60;1.00
4813;DHT22;2420;51.202;8.698;2023-04-24T10:15:21;8.60;1.00
4813;DHT22;2420;51.202;8.698;2023-04-24T10:17:50;8.60;1.00
4813;DHT22;2420;51.202;8.698;2023-04-24T10:20:21;8.70;1.00
4813;DHT22;2420;51.202;8.698;2023-04-24T10:22:49;8.80;1.00
4813;DHT22;2420;51.202;8.698;2023-04-24T10:25:20;8.80;1.00
4813;DHT22;2420;51.202;8.698;2023-04-24T10:27:47;8.60;1.00
4813;DHT22;2420;51.202;8.698;2023-04-24T10:30:14;8.70;1.00
4813;DHT22;2420;51.202;8.698;2023-04-24T10:32:40;8.80;1.00
4813;DHT22;2420;51.202;8.698;2023-04-24T10:35:10;8.60;1.00
4813;DHT22;2420;51.202;8.698;2023-04-24T10:37:56;8.50;1.00
4813;DHT22;2420;51.202;8.698;2023-04-24T10:40:32;8.50;1.00
4813;DHT22;2420;51.202;8.698;2023-04-24T10:42:59;8.60;1.00
4813;DHT22;2420;51.202;8.698;2023-04-24T10:45:25;8.60;1.00
4813;DHT22;2420;51.202;8.698;2023-04-24T10:50:22;8.30;1.00
4813;DHT22;2420;51.202;8.698;2023-04-24T10:52:49;8.30;1.00
4813;DHT22;2420;51.202;8.698;2023-04-24T10:55:50;8.30;1.00
4813;DHT22;2420;51.202;8.698;2023-04-24T10:58:16;8.30;1.00
4813;DHT22;2420;51.202;8.698;2023-04-24T11:00:58;8.20;1.00
4813;DHT22;2420;51.202;8.698;2023-04-24T11:03:27;8.20;1.00
4813;DHT22;2420;51.202;8.698;2023-04-24T11:08:29;8.10;1.00
4813;DHT22;2420;51.202;8.698;2023-04-24T11:10:56;8.30;1.00
4813;DHT22;2420;51.202;8.698;2023-04-24T11:16:21;8.60;1.00
4813;DHT22;2420;51.202;8.698;2023-04-24T11:18:52;8.80;1.00
4813;DHT22;2420;51.202;8.698;2023-04-24T11:21:20;9.00;1.00
4813;DHT22;2420;51.202;8.698;2023-04-24T11:23:47;8.90;1.00
4813;DHT22;2420;51.202;8.698;2023-04-24T11:26:23;8.70;1.00
4813;DHT22;2420;51.202;8.698;2023-04-24T11:29:07;8.50;1.00
4813;DHT22;2420;51.202;8.698;2023-04-24T11:31:40;8.50;1.00
4813;DHT22;2420;51.202;8.698;2023-04-24T11:34:14;8.50;1.00
4813;DHT22;2420;51.202;8.698;2023-04-24T11:36:43;8.50;1.00
4813;DHT22;2420;51.202;8.698;2023-04-24T11:39:09;8.50;1.00
4813;DHT22;2420;51.202;8.698;2023-04-24T11:41:36;8.60;1.00
4813;DHT22;2420;51.202;8.698;2023-04-24T11:44:03;8.50;1.00
4813;DHT22;2420;51.202;8.698;2023-04-24T11:46:31;8.80;1.00
4813;DHT22;2420;51.202;8.698;2023-04-24T11:48:57;9.00;1.00
4813;DHT22;2420;51.202;8.698;2023-04-24T11:51:24;9.10;1.00
4813;DHT22;2420;51.202;8.698;2023-04-24T11:53:54;9.20;1.00
4813;DHT22;2420;51.202;8.698;2023-04-24T11:56:23;9.20;1.00
4813;DHT22;2420;51.202;8.698;2023-04-24T11:58:52;9.30;1.00
4813;DHT22;2420;51.202;8.698;2023-04-24T12:01:18;8.80;1.00
4813;DHT22;2420;51.202;8.698;2023-04-24T12:03:48;8.80;1.00
4813;DHT22;2420;51.202;8.698;2023-04-24T12:06:14;9.00;1.00
4813;DHT22;2420;51.202;8.698;2023-04-24T12:08:39;9.00;1.00
4813;DHT22;2420;51.202;8.698;2023-04-24T12:11:06;9.20;1.00
4813;DHT22;2420;51.202;8.698;2023-04-24T12:13:35;9.40;1.00
4813;DHT22;2420;51.202;8.698;2023-04-24T12:16:03;9.40;1.00
4813;DHT22;2420;51.202;8.698;2023-04-24T12:18:29;9.60;1.00
4813;DHT22;2420;51.202;8.698;2023-04-24T12:20:55;9.60;1.00
4813;DHT22;2420;51.202;8.698;2023-04-24T12:23:35;9.60;1.00
4813;DHT22;2420;51.202;8.698;2023-04-24T12:26:04;9.40;1.00
4813;DHT22;2420;51.202;8.698;2023-04-24T12:28:37;9.50;1.00
4813;DHT22;2420;51.202;8.698;2023-04-24T12:31:03;9.90;1.00
4813;DHT22;2420;51.202;8.698;2023-04-24T12:33:33;10.10;1.00
4813;DHT22;2420;51.202;8.698;2023-04-24T12:35:59;10.10;1.00
4813;DHT22;2420;51.202;8.698;2023-04-24T12:38:27;10.00;1.00
4813;DHT22;2420;51.202;8.698;2023-04-24T12:41:08;10.00;1.00
4813;DHT22;2420;51.202;8.698;2023-04-24T12:43:34;10.00;1.00
4813;DHT22;2420;51.202;8.698;2023-04-24T12:46:00;10.10;1.00
4813;DHT22;2420;51.202;8.698;2023-04-24T12:48:29;10.00;1.00
4813;DHT22;2420;51.202;8.698;2023-04-24T12:50:56;10.10;1.00
4813;DHT22;2420;51.202;8.698;2023-04-24T12:53:22;9.90;1.00
4813;DHT22;2420;51.202;8.698;2023-04-24T12:55:48;9.80;1.00
4813;DHT22;2420;51.202;8.698;2023-04-24T12:58:19;9.60;1.00
4813;DHT22;2420;51.202;8.698;2023-04-24T13:00:45;9.60;1.00
4813;DHT22;2420;51.202;8.698;2023-04-24T13:03:12;9.50;1.00
4813;DHT22;2420;51.202;8.698;2023-04-24T13:05:37;9.50;1.00
4813;DHT22;2420;51.202;8.698;2023-04-24T13:08:03;9.50;1.00
4813;DHT22;2420;51.202;8.698;2023-04-24T13:10:28;9.50;1.00
4813;DHT22;2420;51.202;8.698;2023-04-24T13:12:54;9.60;1.00
4813;DHT22;2420;51.202;8.698;2023-04-24T13:15:20;9.40;1.00
4813;DHT22;2420;51.202;8.698;2023-04-24T13:17:45;9.30;1.00
4813;DHT22;2420;51.202;8.698;2023-04-24T13:20:11;9.20;1.00
4813;DHT22;2420;51.202;8.698;2023-04-24T13:22:36;9.30;1.00
4813;DHT22;2420;51.202;8.698;2023-04-24T13:25:02;9.30;1.00
4813;DHT22;2420;51.202;8.698;2023-04-24T13:27:28;9.10;1.00
4813;DHT22;2420;51.202;8.698;2023-04-24T13:29:54;9.00;1.00
4813;DHT22;2420;51.202;8.698;2023-04-24T13:32:19;8.80;1.00
4813;DHT22;2420;51.202;8.698;2023-04-24T13:34:45;8.60;1.00
4813;DHT22;2420;51.202;8.698;2023-04-24T13:37:11;8.50;1.00
4813;DHT22;2420;51.202;8.698;2023-04-24T13:39:37;8.60;1.00
4813;DHT22;2420;51.202;8.698;2023-04-24T13:42:02;8.50;1.00
4813;DHT22;2420;51.202;8.698;2023-04-24T13:44:28;8.40;1.00
4813;DHT22;2420;51.202;8.698;2023-04-24T13:46:54;8.50;1.00
4813;DHT22;2420;51.202;8.698;2023-04-24T13:49:23;8.70;1.00
4813;DHT22;2420;51.202;8.698;2023-04-24T13:51:50;9.40;1.00
4813;DHT22;2420;51.202;8.698;2023-04-24T13:54:16;9.70;1.00
4813;DHT22;2420;51.202;8.698;2023-04-24T13:56:41;10.10;1.00
4813;DHT22;2420;51.202;8.698;2023-04-24T13:59:07;10.50;1.00
4813;DHT22;2420;51.202;8.698;2023-04-24T14:01:33;10.80;1.00
4813;DHT22;2420;51.202;8.698;2023-04-24T14:03:59;10.90;1.00
4813;DHT22;2420;51.202;8.698;2023-04-24T14:06:25;10.90;1.00
4813;DHT22;2420;51.202;8.698;2023-04-24T14:08:51;10.70;1.00
4813;DHT22;2420;51.202;8.698;2023-04-24T14:11:18;10.60;1.00
4813;DHT22;2420;51.202;8.698;2023-04-24T14:13:44;10.50;1.00
4813;DHT22;2420;51.202;8.698;2023-04-24T14:16:10;10.00;1.00
4813;DHT22;2420;51.202;8.698;2023-04-24T14:18:36;9.80;1.00
4813;DHT22;2420;51.202;8.698;2023-04-24T14:21:04;9.80;1.00
4813;DHT22;2420;51.202;8.698;2023-04-24T14:23:30;9.70;1.00
4813;DHT22;2420;51.202;8.698;2023-04-24T14:25:57;9.80;1.00
4813;DHT22;2420;51.202;8.698;2023-04-24T14:28:23;9.80;1.00
4813;DHT22;2420;51.202;8.698;2023-04-24T14:30:48;9.90;1.00
4813;DHT22;2420;51.202;8.698;2023-04-24T14:33:14;10.10;1.00
4813;DHT22;2420;51.202;8.698;2023-04-24T14:35:40;10.30;1.00
4813;DHT22;2420;51.202;8.698;2023-04-24T14:38:08;10.30;1.00
4813;DHT22;2420;51.202;8.698;2023-04-24T14:40:34;10.40;1.00
4813;DHT22;2420;51.202;8.698;2023-04-24T14:43:00;10.50;1.00
4813;DHT22;2420;51.202;8.698;2023-04-24T14:45:26;10.50;1.00
4813;DHT22;2420;51.202;8.698;2023-04-24T14:47:52;10.70;1.00
4813;DHT22;2420;51.202;8.698;2023-04-24T14:50:17;10.80;1.00
4813;DHT22;2420;51.202;8.698;2023-04-24T14:52:43;10.80;1.00
4813;DHT22;2420;51.202;8.698;2023-04-24T14:55:09;10.40;1.00
4813;DHT22;2420;51.202;8.698;2023-04-24T14:57:35;10.10;1.00
4813;DHT22;2420;51.202;8.698;2023-04-24T15:00:04;9.80;1.00
4813;DHT22;2420;51.202;8.698;2023-04-24T15:02:33;9.60;1.00
4813;DHT22;2420;51.202;8.698;2023-04-24T15:04:58;9.80;1.00
4813;DHT22;2420;51.202;8.698;2023-04-24T15:07:24;10.10;1.00
4813;DHT22;2420;51.202;8.698;2023-04-24T15:09:50;10.30;1.00
4813;DHT22;2420;51.202;8.698;2023-04-24T15:12:15;10.20;1.00
4813;DHT22;2420;51.202;8.698;2023-04-24T15:14:41;10.00;1.00
4813;DHT22;2420;51.202;8.698;2023-04-24T15:17:06;9.90;1.00
4813;DHT22;2420;51.202;8.698;2023-04-24T15:19:32;9.70;1.00
4813;DHT22;2420;51.202;8.698;2023-04-24T15:21:57;9.70;1.00
4813;DHT22;2420;51.202;8.698;2023-04-24T15:24:23;9.80;1.00
4813;DHT22;2420;51.202;8.698;2023-04-24T15:26:49;10.00;1.00
4813;DHT22;2420;51.202;8.698;2023-04-24T15:29:15;10.10;1.00
4813;DHT22;2420;51.202;8.698;2023-04-24T15:31:40;10.20;1.00
4813;DHT22;2420;51.202;8.698;2023-04-24T15:34:06;10.40;1.00
4813;DHT22;2420;51.202;8.698;2023-04-24T15:36:31;10.50;1.00
4813;DHT22;2420;51.202;8.698;2023-04-24T15:38:57;10.50;1.00
4813;DHT22;2420;51.202;8.698;2023-04-24T15:41:23;10.50;1.00
4813;DHT22;2420;51.202;8.698;2023-04-24T15:43:49;10.40;1.00
4813;DHT22;2420;51.202;8.698;2023-04-24T15:46:15;10.20;1.00
4813;DHT22;2420;51.202;8.698;2023-04-24T15:48:42;10.20;1.00
4813;DHT22;2420;51.202;8.698;2023-04-24T15:51:07;10.10;1.00
4813;DHT22;2420;51.202;8.698;2023-04-24T15:53:33;10.00;1.00
4813;DHT22;2420;51.202;8.698;2023-04-24T15:55:59;9.80;1.00
4813;DHT22;2420;51.202;8.698;2023-04-24T15:58:24;9.70;1.00
4813;DHT22;2420;51.202;8.698;2023-04-24T16:00:50;9.60;1.00
4813;DHT22;2420;51.202;8.698;2023-04-24T16:03:19;9.60;1.00
4813;DHT22;2420;51.202;8.698;2023-04-24T16:05:44;9.50;1.00
4813;DHT22;2420;51.202;8.698;2023-04-24T16:08:10;9.40;1.00
4813;DHT22;2420;51.202;8.698;2023-04-24T16:10:38;9.40;1.00
4813;DHT22;2420;51.202;8.698;2023-04-24T16:13:04;9.40;1.00
4813;DHT22;2420;51.202;8.698;2023-04-24T16:15:30;9.20;1.00
4813;DHT22;2420;51.202;8.698;2023-04-24T16:17:56;9.10;1.00
4813;DHT22;2420;51.202;8.698;2023-04-24T16:20:22;9.00;1.00
4813;DHT22;2420;51.202;8.698;2023-04-24T16:22:48;9.00;1.00
4813;DHT22;2420;51.202;8.698;2023-04-24T16:25:14;9.00;1.00
4813;DHT22;2420;51.202;8.698;2023-04-24T16:27:40;9.00;1.00
4813;DHT22;2420;51.202;8.698;2023-04-24T16:30:06;8.90;1.00
4813;DHT22;2420;51.202;8.698;2023-04-24T16:32:31;8.80;1.00
4813;DHT22;2420;51.202;8.698;2023-04-24T16:34:57;8.80;1.00
4813;DHT22;2420;51.202;8.698;2023-04-24T16:37:23;8.80;1.00